sensor_id;sensor_type;location;lat;lon;timestamp;pressure;altitude;pressure_sealevel;temperature;humidity
69982;BME280;57319;56.274;43.980;2023-01-15T00:01:48;100904.47;;;-7.12;74.60
69982;BME280;57319;56.274;43.980;2023-01-15T00:04:14;100904.97;;;-7.17;74.78
69982;BME280;57319;56.274;43.980;2023-01-15T00:06:41;100912.00;;;-7.23;75.11
69982;BME280;57319;56.274;43.980;2023-01-15T00:09:12;100902.88;;;-7.22;74.84
69982;BME280;57319;56.274;43.980;2023-01-15T00:11:37;100918.41;;;-7.26;74.90
69982;BME280;57319;56.274;43.980;2023-01-15T00:14:03;100909.97;;;-7.17;74.44
69982;BME280;57319;56.274;43.980;2023-01-15T00:16:29;100900.16;;;-7.25;74.61
69982;BME280;57319;56.274;43.980;2023-01-15T00:18:57;100902.13;;;-7.21;74.56
69982;BME280;57319;56.274;43.980;2023-01-15T00:21:24;100904.13;;;-7.17;74.61
69982;BME280;57319;56.274;43.980;2023-01-15T00:23:50;100904.38;;;-7.24;74.47
69982;BME280;57319;56.274;43.980;2023-01-15T00:26:35;100914.03;;;-7.29;74.15
69982;BME280;57319;56.274;43.980;2023-01-15T00:29:20;100897.44;;;-7.39;74.22
69982;BME280;57319;56.274;43.980;2023-01-15T00:31:55;100900.66;;;-7.29;74.55
69982;BME280;57319;56.274;43.980;2023-01-15T00:34:22;100896.00;;;-7.25;74.42
69982;BME280;57319;56.274;43.980;2023-01-15T00:36:48;100891.22;;;-7.22;74.74
69982;BME280;57319;56.274;43.980;2023-01-15T00:39:13;100878.84;;;-7.20;74.75
69982;BME280;57319;56.274;43.980;2023-01-15T00:41:39;100877.63;;;-7.25;74.51
69982;BME280;57319;56.274;43.980;2023-01-15T00:44:05;100882.56;;;-7.15;74.62
69982;BME280;57319;56.274;43.980;2023-01-15T00:46:30;100888.16;;;-7.07;74.07
69982;BME280;57319;56.274;43.980;2023-01-15T00:48:56;100889.31;;;-7.14;73.95
69982;BME280;57319;56.274;43.980;2023-01-15T00:51:22;100888.97;;;-7.19;73.92
69982;BME280;57319;56.274;43.980;2023-01-15T00:53:47;100885.88;;;-7.26;73.83
69982;BME280;57319;56.274;43.980;2023-01-15T00:56:13;100892.88;;;-7.22;73.77
69982;BME280;57319;56.274;43.980;2023-01-15T00:58:38;100890.38;;;-7.22;74.00
69982;BME280;57319;56.274;43.980;2023-01-15T01:01:04;100885.47;;;-7.21;73.37
69982;BME280;57319;56.274;43.980;2023-01-15T01:03:30;100894.88;;;-7.28;73.96
69982;BME280;57319;56.274;43.980;2023-01-15T01:06:01;100888.00;;;-7.31;73.91
69982;BME280;57319;56.274;43.980;2023-01-15T01:08:28;100888.28;;;-7.28;73.51
69982;BME280;57319;56.274;43.980;2023-01-15T01:11:21;100888.16;;;-7.29;74.01
69982;BME280;57319;56.274;43.980;2023-01-15T01:13:49;100891.75;;;-7.26;74.15
69982;BME280;57319;56.274;43.980;2023-01-15T01:16:21;100881.50;;;-7.29;74.28
69982;BME280;57319;56.274;43.980;2023-01-15T01:18:47;100879.66;;;-7.31;73.79
69982;BME280;57319;56.274;43.980;2023-01-15T01:21:13;100873.41;;;-7.37;74.12
69982;BME280;57319;56.274;43.980;2023-01-15T01:23:38;100875.66;;;-7.29;74.31
69982;BME280;57319;56.274;43.980;2023-01-15T01:26:04;100865.03;;;-7.37;73.92
69982;BME280;57319;56.274;43.980;2023-01-15T01:28:29;100870.16;;;-7.36;74.35
69982;BME280;57319;56.274;43.980;2023-01-15T01:30:55;100861.06;;;-7.45;73.94
69982;BME280;57319;56.274;43.980;2023-01-15T01:33:21;100861.81;;;-7.46;74.13
69982;BME280;57319;56.274;43.980;2023-01-15T01:35:50;100866.81;;;-7.46;74.26
69982;BME280;57319;56.274;43.980;2023-01-15T01:38:16;100852.56;;;-7.47;74.54
69982;BME280;57319;56.274;43.980;2023-01-15T01:40:41;100862.19;;;-7.42;74.51
69982;BME280;57319;56.274;43.980;2023-01-15T01:43:19;100846.69;;;-7.38;74.42
69982;BME280;57319;56.274;43.980;2023-01-15T01:45:45;100858.81;;;-7.42;74.85
69982;BME280;57319;56.274;43.980;2023-01-15T01:48:12;100852.72;;;-7.46;74.49
69982;BME280;57319;56.274;43.980;2023-01-15T01:50:39;100853.47;;;-7.47;74.20
69982;BME280;57319;56.274;43.980;2023-01-15T01:53:09;100842.63;;;-7.58;73.91
69982;BME280;57319;56.274;43.980;2023-01-15T01:55:37;100846.25;;;-7.54;73.71
69982;BME280;57319;56.274;43.980;2023-01-15T01:58:05;100840.53;;;-7.63;74.04
69982;BME280;57319;56.274;43.980;2023-01-15T02:00:32;100848.38;;;-7.59;74.11
69982;BME280;57319;56.274;43.980;2023-01-15T02:03:00;100844.91;;;-7.71;73.98
69982;BME280;57319;56.274;43.980;2023-01-15T02:05:30;100852.66;;;-7.68;73.92
69982;BME280;57319;56.274;43.980;2023-01-15T02:07:56;100848.16;;;-7.72;74.00
69982;BME280;57319;56.274;43.980;2023-01-15T02:10:22;100852.53;;;-7.70;73.71
69982;BME280;57319;56.274;43.980;2023-01-15T02:12:55;100847.41;;;-7.71;73.71
69982;BME280;57319;56.274;43.980;2023-01-15T02:15:32;100841.31;;;-7.75;73.85
69982;BME280;57319;56.274;43.980;2023-01-15T02:18:01;100846.69;;;-7.80;73.48
69982;BME280;57319;56.274;43.980;2023-01-15T02:20:35;100842.88;;;-7.87;73.42
69982;BME280;57319;56.274;43.980;2023-01-15T02:26:12;100832.16;;;-7.96;73.87
69982;BME280;57319;56.274;43.980;2023-01-15T02:28:47;100825.75;;;-7.93;73.92
69982;BME280;57319;56.274;43.980;2023-01-15T02:31:19;100826.75;;;-8.01;73.84
69982;BME280;57319;56.274;43.980;2023-01-15T02:34:04;100833.16;;;-8.05;73.81
69982;BME280;57319;56.274;43.980;2023-01-15T02:36:36;100843.03;;;-8.06;73.97
69982;BME280;57319;56.274;43.980;2023-01-15T02:39:06;100828.06;;;-8.06;73.92
69982;BME280;57319;56.274;43.980;2023-01-15T02:41:44;100828.16;;;-8.05;74.08
69982;BME280;57319;56.274;43.980;2023-01-15T02:44:13;100834.66;;;-8.07;73.83
69982;BME280;57319;56.274;43.980;2023-01-15T02:46:40;100825.66;;;-8.05;73.86
69982;BME280;57319;56.274;43.980;2023-01-15T02:49:10;100826.06;;;-8.10;73.90
69982;BME280;57319;56.274;43.980;2023-01-15T02:51:40;100830.28;;;-8.09;73.95
69982;BME280;57319;56.274;43.980;2023-01-15T02:54:12;100819.44;;;-8.10;74.19
69982;BME280;57319;56.274;43.980;2023-01-15T02:56:40;100819.06;;;-8.14;73.66
69982;BME280;57319;56.274;43.980;2023-01-15T02:59:12;100824.06;;;-8.14;74.29
69982;BME280;57319;56.274;43.980;2023-01-15T03:01:45;100812.84;;;-8.20;73.96
69982;BME280;57319;56.274;43.980;2023-01-15T03:04:42;100804.31;;;-8.22;73.96
69982;BME280;57319;56.274;43.980;2023-01-15T03:09:46;100812.75;;;-8.42;73.96
69982;BME280;57319;56.274;43.980;2023-01-15T03:12:40;100816.66;;;-8.45;74.18
69982;BME280;57319;56.274;43.980;2023-01-15T03:18:31;100819.16;;;-8.56;73.89
69982;BME280;57319;56.274;43.980;2023-01-15T03:21:07;100816.16;;;-8.62;74.52
69982;BME280;57319;56.274;43.980;2023-01-15T03:23:37;100803.81;;;-8.60;74.29
69982;BME280;57319;56.274;43.980;2023-01-15T03:26:05;100817.41;;;-8.57;74.05
69982;BME280;57319;56.274;43.980;2023-01-15T03:28:33;100818.66;;;-8.51;73.96
69982;BME280;57319;56.274;43.980;2023-01-15T03:31:00;100818.38;;;-8.44;73.91
69982;BME280;57319;56.274;43.980;2023-01-15T03:33:25;100826.09;;;-8.41;73.69
69982;BME280;57319;56.274;43.980;2023-01-15T03:35:59;100832.38;;;-8.46;73.32
69982;BME280;57319;56.274;43.980;2023-01-15T03:38:36;100825.66;;;-8.47;73.53
69982;BME280;57319;56.274;43.980;2023-01-15T03:41:28;100829.00;;;-8.47;73.50
69982;BME280;57319;56.274;43.980;2023-01-15T03:44:17;100830.88;;;-8.55;73.35
69982;BME280;57319;56.274;43.980;2023-01-15T03:58:43;100840.88;;;-8.65;73.18
69982;BME280;57319;56.274;43.980;2023-01-15T04:01:02;100841.00;;;-8.63;73.26
69982;BME280;57319;56.274;43.980;2023-01-15T04:03:29;100836.25;;;-8.60;73.09
69982;BME280;57319;56.274;43.980;2023-01-15T04:05:59;100839.13;;;-8.66;72.98
69982;BME280;57319;56.274;43.980;2023-01-15T04:08:27;100845.53;;;-8.70;73.20
69982;BME280;57319;56.274;43.980;2023-01-15T04:10:57;100839.88;;;-8.67;72.72
69982;BME280;57319;56.274;43.980;2023-01-15T04:13:23;100850.63;;;-8.68;72.39
69982;BME280;57319;56.274;43.980;2023-01-15T04:15:50;100835.25;;;-8.73;73.23
69982;BME280;57319;56.274;43.980;2023-01-15T04:18:15;100844.25;;;-8.75;73.08
69982;BME280;57319;56.274;43.980;2023-01-15T04:20:41;100843.88;;;-8.69;72.68
69982;BME280;57319;56.274;43.980;2023-01-15T04:23:07;100837.75;;;-8.73;72.74
69982;BME280;57319;56.274;43.980;2023-01-15T04:25:33;100846.63;;;-8.66;73.00
69982;BME280;57319;56.274;43.980;2023-01-15T04:27:59;100833.03;;;-8.70;72.88
69982;BME280;57319;56.274;43.980;2023-01-15T04:30:24;100849.13;;;-8.66;72.38
69982;BME280;57319;56.274;43.980;2023-01-15T04:32:50;100839.25;;;-8.64;72.26
69982;BME280;57319;56.274;43.980;2023-01-15T04:35:18;100841.53;;;-8.78;72.32
69982;BME280;57319;56.274;43.980;2023-01-15T04:37:44;100837.28;;;-8.79;72.28
69982;BME280;57319;56.274;43.980;2023-01-15T04:40:11;100838.00;;;-8.80;72.62
69982;BME280;57319;56.274;43.980;2023-01-15T04:43:00;100843.50;;;-8.84;72.24
69982;BME280;57319;56.274;43.980;2023-01-15T04:45:44;100849.34;;;-8.83;72.12
69982;BME280;57319;56.274;43.980;2023-01-15T04:48:10;100848.63;;;-8.93;72.17
69982;BME280;57319;56.274;43.980;2023-01-15T04:50:37;100848.84;;;-9.00;72.57
69982;BME280;57319;56.274;43.980;2023-01-15T04:53:03;100846.97;;;-9.02;73.03
69982;BME280;57319;56.274;43.980;2023-01-15T04:55:29;100850.22;;;-9.04;73.43
69982;BME280;57319;56.274;43.980;2023-01-15T04:57:55;100855.22;;;-9.04;72.89
69982;BME280;57319;56.274;43.980;2023-01-15T05:00:20;100846.84;;;-9.04;72.81
69982;BME280;57319;56.274;43.980;2023-01-15T05:02:47;100835.50;;;-9.11;73.67
69982;BME280;57319;56.274;43.980;2023-01-15T05:05:13;100843.72;;;-9.12;73.30
69982;BME280;57319;56.274;43.980;2023-01-15T05:07:39;100831.97;;;-9.13;73.45
69982;BME280;57319;56.274;43.980;2023-01-15T05:10:05;100845.72;;;-8.97;73.59
69982;BME280;57319;56.274;43.980;2023-01-15T05:12:30;100840.59;;;-9.09;72.65
69982;BME280;57319;56.274;43.980;2023-01-15T05:14:56;100845.47;;;-9.00;72.81
69982;BME280;57319;56.274;43.980;2023-01-15T05:17:22;100847.09;;;-8.91;72.58
69982;BME280;57319;56.274;43.980;2023-01-15T05:19:47;100847.72;;;-8.93;72.45
69982;BME280;57319;56.274;43.980;2023-01-15T05:22:13;100835.50;;;-9.00;72.36
69982;BME280;57319;56.274;43.980;2023-01-15T05:24:38;100842.97;;;-9.00;72.56
69982;BME280;57319;56.274;43.980;2023-01-15T05:27:04;100839.75;;;-8.99;72.25
69982;BME280;57319;56.274;43.980;2023-01-15T05:29:30;100839.00;;;-8.98;72.28
69982;BME280;57319;56.274;43.980;2023-01-15T05:31:56;100839.00;;;-8.98;72.50
69982;BME280;57319;56.274;43.980;2023-01-15T05:34:21;100833.00;;;-9.00;72.17
69982;BME280;57319;56.274;43.980;2023-01-15T05:36:47;100837.88;;;-9.02;71.80
69982;BME280;57319;56.274;43.980;2023-01-15T05:39:13;100834.22;;;-9.06;71.80
69982;BME280;57319;56.274;43.980;2023-01-15T05:41:39;100845.97;;;-9.05;71.38
69982;BME280;57319;56.274;43.980;2023-01-15T05:44:21;100841.22;;;-9.12;71.79
69982;BME280;57319;56.274;43.980;2023-01-15T05:46:49;100843.59;;;-9.13;71.79
69982;BME280;57319;56.274;43.980;2023-01-15T05:49:18;100846.22;;;-9.12;71.19
69982;BME280;57319;56.274;43.980;2023-01-15T05:51:44;100850.72;;;-9.08;71.02
69982;BME280;57319;56.274;43.980;2023-01-15T05:54:13;100853.16;;;-9.18;71.55
69982;BME280;57319;56.274;43.980;2023-01-15T05:56:39;100848.94;;;-9.19;71.85
69982;BME280;57319;56.274;43.980;2023-01-15T05:59:06;100858.44;;;-9.15;71.48
69982;BME280;57319;56.274;43.980;2023-01-15T06:01:32;100855.69;;;-9.08;71.67
69982;BME280;57319;56.274;43.980;2023-01-15T06:03:59;100850.09;;;-9.05;71.35
69982;BME280;57319;56.274;43.980;2023-01-15T06:06:25;100840.84;;;-9.06;71.41
69982;BME280;57319;56.274;43.980;2023-01-15T06:08:51;100855.44;;;-9.11;70.80
69982;BME280;57319;56.274;43.980;2023-01-15T06:11:17;100849.94;;;-9.17;71.15
69982;BME280;57319;56.274;43.980;2023-01-15T06:13:42;100854.19;;;-9.16;71.38
69982;BME280;57319;56.274;43.980;2023-01-15T06:16:08;100849.31;;;-9.14;71.09
69982;BME280;57319;56.274;43.980;2023-01-15T06:18:38;100859.91;;;-9.17;70.90
69982;BME280;57319;56.274;43.980;2023-01-15T06:21:05;100861.56;;;-9.07;71.12
69982;BME280;57319;56.274;43.980;2023-01-15T06:23:32;100846.47;;;-9.09;71.17
69982;BME280;57319;56.274;43.980;2023-01-15T06:26:02;100860.44;;;-9.00;70.99
69982;BME280;57319;56.274;43.980;2023-01-15T06:28:28;100864.44;;;-9.02;70.66
69982;BME280;57319;56.274;43.980;2023-01-15T06:30:54;100868.19;;;-9.08;70.26
69982;BME280;57319;56.274;43.980;2023-01-15T06:33:20;100858.81;;;-9.10;70.55
69982;BME280;57319;56.274;43.980;2023-01-15T06:35:45;100866.03;;;-9.13;70.70
69982;BME280;57319;56.274;43.980;2023-01-15T06:38:11;100855.56;;;-9.09;70.75
69982;BME280;57319;56.274;43.980;2023-01-15T06:40:37;100856.69;;;-9.06;70.41
69982;BME280;57319;56.274;43.980;2023-01-15T06:43:02;100863.47;;;-8.94;70.61
69982;BME280;57319;56.274;43.980;2023-01-15T06:45:46;100859.94;;;-8.96;69.91
69982;BME280;57319;56.274;43.980;2023-01-15T06:48:32;100870.94;;;-8.94;70.77
69982;BME280;57319;56.274;43.980;2023-01-15T06:50:57;100871.19;;;-8.91;70.35
69982;BME280;57319;56.274;43.980;2023-01-15T06:53:23;100870.31;;;-8.92;70.41
69982;BME280;57319;56.274;43.980;2023-01-15T06:55:49;100870.09;;;-8.84;70.84
69982;BME280;57319;56.274;43.980;2023-01-15T06:58:15;100860.34;;;-8.81;70.84
69982;BME280;57319;56.274;43.980;2023-01-15T07:00:41;100859.09;;;-8.87;70.18
69982;BME280;57319;56.274;43.980;2023-01-15T07:03:17;100866.97;;;-8.82;70.62
69982;BME280;57319;56.274;43.980;2023-01-15T07:05:43;100865.34;;;-8.81;70.22
69982;BME280;57319;56.274;43.980;2023-01-15T07:08:08;100873.31;;;-8.75;70.57
69982;BME280;57319;56.274;43.980;2023-01-15T07:10:34;100879.44;;;-8.72;70.64
69982;BME280;57319;56.274;43.980;2023-01-15T07:13:00;100878.72;;;-8.71;70.38
69982;BME280;57319;56.274;43.980;2023-01-15T07:15:25;100873.22;;;-8.66;70.32
69982;BME280;57319;56.274;43.980;2023-01-15T07:17:55;100876.97;;;-8.61;69.97
69982;BME280;57319;56.274;43.980;2023-01-15T07:20:21;100874.84;;;-8.57;70.11
69982;BME280;57319;56.274;43.980;2023-01-15T07:22:48;100877.69;;;-8.52;70.18
69982;BME280;57319;56.274;43.980;2023-01-15T07:25:14;100887.94;;;-8.59;70.44
69982;BME280;57319;56.274;43.980;2023-01-15T07:27:39;100876.09;;;-8.62;69.87
69982;BME280;57319;56.274;43.980;2023-01-15T07:30:05;100882.94;;;-8.59;70.44
69982;BME280;57319;56.274;43.980;2023-01-15T07:32:31;100883.72;;;-8.50;70.50
69982;BME280;57319;56.274;43.980;2023-01-15T07:34:57;100884.69;;;-8.48;69.97
69982;BME280;57319;56.274;43.980;2023-01-15T07:37:22;100881.56;;;-8.45;69.82
69982;BME280;57319;56.274;43.980;2023-01-15T07:39:49;100890.06;;;-8.43;70.69
69982;BME280;57319;56.274;43.980;2023-01-15T07:42:14;100881.22;;;-8.50;70.26
69982;BME280;57319;56.274;43.980;2023-01-15T07:44:59;100891.31;;;-8.59;70.43
69982;BME280;57319;56.274;43.980;2023-01-15T07:47:43;100876.47;;;-8.67;70.63
69982;BME280;57319;56.274;43.980;2023-01-15T07:50:27;100877.69;;;-8.73;70.54
69982;BME280;57319;56.274;43.980;2023-01-15T07:52:53;100879.69;;;-8.68;70.97
69982;BME280;57319;56.274;43.980;2023-01-15T07:55:18;100891.06;;;-8.62;70.75
69982;BME280;57319;56.274;43.980;2023-01-15T07:57:44;100877.59;;;-8.54;70.60
69982;BME280;57319;56.274;43.980;2023-01-15T08:00:17;100882.19;;;-8.38;71.01
69982;BME280;57319;56.274;43.980;2023-01-15T08:02:43;100883.66;;;-8.40;70.61
69982;BME280;57319;56.274;43.980;2023-01-15T08:05:10;100884.41;;;-8.30;70.15
69982;BME280;57319;56.274;43.980;2023-01-15T08:07:37;100886.44;;;-8.37;69.97
69982;BME280;57319;56.274;43.980;2023-01-15T08:10:03;100873.16;;;-8.36;69.90
69982;BME280;57319;56.274;43.980;2023-01-15T08:12:29;100864.19;;;-8.44;70.01
69982;BME280;57319;56.274;43.980;2023-01-15T08:15:13;100872.81;;;-8.40;70.18
69982;BME280;57319;56.274;43.980;2023-01-15T08:17:41;100880.94;;;-8.32;70.70
69982;BME280;57319;56.274;43.980;2023-01-15T08:20:13;100880.16;;;-8.31;69.91
69982;BME280;57319;56.274;43.980;2023-01-15T08:22:39;100878.56;;;-8.31;70.11
69982;BME280;57319;56.274;43.980;2023-01-15T08:25:07;100877.66;;;-8.31;70.14
69982;BME280;57319;56.274;43.980;2023-01-15T08:27:33;100864.44;;;-8.30;70.09
69982;BME280;57319;56.274;43.980;2023-01-15T08:29:58;100863.56;;;-8.31;70.14
69982;BME280;57319;56.274;43.980;2023-01-15T08:32:24;100864.94;;;-8.35;70.69
69982;BME280;57319;56.274;43.980;2023-01-15T08:34:50;100867.56;;;-8.33;70.21
69982;BME280;57319;56.274;43.980;2023-01-15T08:37:15;100856.97;;;-8.41;70.46
69982;BME280;57319;56.274;43.980;2023-01-15T08:39:41;100869.19;;;-8.33;71.14
69982;BME280;57319;56.274;43.980;2023-01-15T08:42:06;100861.78;;;-8.22;70.82
69982;BME280;57319;56.274;43.980;2023-01-15T08:44:33;100859.28;;;-8.22;70.73
69982;BME280;57319;56.274;43.980;2023-01-15T08:46:58;100869.03;;;-8.14;70.32
69982;BME280;57319;56.274;43.980;2023-01-15T08:49:24;100860.69;;;-8.25;70.79
69982;BME280;57319;56.274;43.980;2023-01-15T08:51:50;100853.56;;;-8.21;70.44
69982;BME280;57319;56.274;43.980;2023-01-15T08:54:19;100848.44;;;-8.12;70.27
69982;BME280;57319;56.274;43.980;2023-01-15T08:56:46;100851.13;;;-7.88;70.26
69982;BME280;57319;56.274;43.980;2023-01-15T08:59:11;100863.69;;;-7.76;70.02
69982;BME280;57319;56.274;43.980;2023-01-15T09:01:38;100852.47;;;-7.81;70.15
69982;BME280;57319;56.274;43.980;2023-01-15T09:04:05;100849.88;;;-7.93;69.93
69982;BME280;57319;56.274;43.980;2023-01-15T09:06:31;100851.50;;;-7.94;69.73
69982;BME280;57319;56.274;43.980;2023-01-15T09:09:00;100846.25;;;-7.97;70.26
69982;BME280;57319;56.274;43.980;2023-01-15T09:11:26;100858.84;;;-7.85;69.92
69982;BME280;57319;56.274;43.980;2023-01-15T09:13:53;100847.59;;;-7.90;70.19
69982;BME280;57319;56.274;43.980;2023-01-15T09:16:18;100860.94;;;-7.79;70.42
69982;BME280;57319;56.274;43.980;2023-01-15T09:18:44;100864.19;;;-7.80;70.37
69982;BME280;57319;56.274;43.980;2023-01-15T09:21:10;100860.44;;;-7.75;69.83
69982;BME280;57319;56.274;43.980;2023-01-15T09:23:36;100854.19;;;-7.70;70.19
69982;BME280;57319;56.274;43.980;2023-01-15T09:26:04;100850.72;;;-7.82;70.51
69982;BME280;57319;56.274;43.980;2023-01-15T09:28:31;100847.34;;;-7.83;70.35
69982;BME280;57319;56.274;43.980;2023-01-15T09:30:57;100857.97;;;-7.86;70.75
69982;BME280;57319;56.274;43.980;2023-01-15T09:33:23;100854.13;;;-7.92;71.02
69982;BME280;57319;56.274;43.980;2023-01-15T09:35:48;100852.22;;;-7.85;70.88
69982;BME280;57319;56.274;43.980;2023-01-15T09:38:16;100856.06;;;-7.78;70.66
69982;BME280;57319;56.274;43.980;2023-01-15T09:40:48;100855.09;;;-7.80;70.59
69982;BME280;57319;56.274;43.980;2023-01-15T09:46:12;100839.69;;;-7.74;70.69
69982;BME280;57319;56.274;43.980;2023-01-15T09:57:01;100837.28;;;-7.62;70.86
69982;BME280;57319;56.274;43.980;2023-01-15T09:59:34;100826.25;;;-7.54;71.39
69982;BME280;57319;56.274;43.980;2023-01-15T10:02:11;100821.09;;;-7.56;70.62
69982;BME280;57319;56.274;43.980;2023-01-15T10:04:44;100821.88;;;-7.57;70.39
69982;BME280;57319;56.274;43.980;2023-01-15T10:10:04;100818.13;;;-7.62;70.75
69982;BME280;57319;56.274;43.980;2023-01-15T10:12:31;100812.72;;;-7.56;71.09
69982;BME280;57319;56.274;43.980;2023-01-15T10:25:15;100821.78;;;-7.36;71.13
69982;BME280;57319;56.274;43.980;2023-01-15T10:27:45;100818.25;;;-7.38;70.67
69982;BME280;57319;56.274;43.980;2023-01-15T10:30:19;100808.22;;;-7.50;70.71
69982;BME280;57319;56.274;43.980;2023-01-15T10:32:54;100810.94;;;-7.47;71.26
69982;BME280;57319;56.274;43.980;2023-01-15T10:43:56;100805.63;;;-7.18;70.66
69982;BME280;57319;56.274;43.980;2023-01-15T10:46:27;100800.06;;;-7.25;70.85
69982;BME280;57319;56.274;43.980;2023-01-15T10:49:09;100806.75;;;-7.14;70.57
69982;BME280;57319;56.274;43.980;2023-01-15T10:51:53;100814.56;;;-7.21;70.97
69982;BME280;57319;56.274;43.980;2023-01-15T10:56:57;100814.59;;;-7.09;70.84
69982;BME280;57319;56.274;43.980;2023-01-15T11:01:58;100823.38;;;-7.14;70.71
69982;BME280;57319;56.274;43.980;2023-01-15T11:04:28;100811.28;;;-7.20;70.81
69982;BME280;57319;56.274;43.980;2023-01-15T11:06:55;100805.31;;;-7.44;71.49
69982;BME280;57319;56.274;43.980;2023-01-15T11:09:24;100807.91;;;-7.43;71.58
69982;BME280;57319;56.274;43.980;2023-01-15T11:12:20;100813.38;;;-7.37;71.22
69982;BME280;57319;56.274;43.980;2023-01-15T11:14:46;100807.97;;;-7.31;71.41
69982;BME280;57319;56.274;43.980;2023-01-15T11:17:40;100817.50;;;-7.37;71.26
69982;BME280;57319;56.274;43.980;2023-01-15T11:20:32;100819.00;;;-7.39;71.68
69982;BME280;57319;56.274;43.980;2023-01-15T11:23:10;100820.31;;;-7.22;71.66
69982;BME280;57319;56.274;43.980;2023-01-15T11:25:37;100802.56;;;-7.25;71.65
69982;BME280;57319;56.274;43.980;2023-01-15T11:28:09;100823.25;;;-7.16;71.51
69982;BME280;57319;56.274;43.980;2023-01-15T11:30:40;100829.78;;;-7.18;71.86
69982;BME280;57319;56.274;43.980;2023-01-15T11:33:23;100833.00;;;-7.09;71.46
69982;BME280;57319;56.274;43.980;2023-01-15T11:35:51;100827.50;;;-7.15;71.52
69982;BME280;57319;56.274;43.980;2023-01-15T11:38:21;100822.41;;;-7.17;71.95
69982;BME280;57319;56.274;43.980;2023-01-15T11:40:56;100826.47;;;-7.07;71.75
69982;BME280;57319;56.274;43.980;2023-01-15T11:43:25;100838.34;;;-7.04;71.63
69982;BME280;57319;56.274;43.980;2023-01-15T11:49:08;100826.88;;;-7.12;71.85
69982;BME280;57319;56.274;43.980;2023-01-15T11:51:54;100833.84;;;-7.08;72.27
69982;BME280;57319;56.274;43.980;2023-01-15T11:54:22;100836.69;;;-7.04;72.10
69982;BME280;57319;56.274;43.980;2023-01-15T11:56:50;100849.06;;;-6.95;72.38
69982;BME280;57319;56.274;43.980;2023-01-15T11:59:17;100836.16;;;-7.00;72.39
69982;BME280;57319;56.274;43.980;2023-01-15T12:01:56;100836.47;;;-7.07;72.07
69982;BME280;57319;56.274;43.980;2023-01-15T12:07:04;100846.69;;;-7.16;72.84
69982;BME280;57319;56.274;43.980;2023-01-15T12:10:09;100848.41;;;-7.14;72.83
69982;BME280;57319;56.274;43.980;2023-01-15T12:23:34;100845.44;;;-7.21;73.28
69982;BME280;57319;56.274;43.980;2023-01-15T12:31:26;100849.09;;;-7.27;73.80
69982;BME280;57319;56.274;43.980;2023-01-15T12:34:02;100844.59;;;-7.21;73.77
69982;BME280;57319;56.274;43.980;2023-01-15T12:36:44;100855.88;;;-7.26;73.37
69982;BME280;57319;56.274;43.980;2023-01-15T12:41:56;100838.97;;;-7.29;73.66
69982;BME280;57319;56.274;43.980;2023-01-15T12:45:24;100849.59;;;-7.21;73.61
69982;BME280;57319;56.274;43.980;2023-01-15T12:50:47;100859.19;;;-7.16;73.55
69982;BME280;57319;56.274;43.980;2023-01-15T12:53:42;100868.06;;;-7.19;73.36
69982;BME280;57319;56.274;43.980;2023-01-15T12:59:03;100864.13;;;-7.27;73.63
69982;BME280;57319;56.274;43.980;2023-01-15T13:10:14;100856.31;;;-7.20;73.67
69982;BME280;57319;56.274;43.980;2023-01-15T13:12:41;100855.13;;;-7.25;73.93
69982;BME280;57319;56.274;43.980;2023-01-15T13:15:12;100853.69;;;-7.22;74.08
69982;BME280;57319;56.274;43.980;2023-01-15T13:20:41;100871.72;;;-7.04;73.17
69982;BME280;57319;56.274;43.980;2023-01-15T13:29:16;100871.69;;;-6.93;72.60
69982;BME280;57319;56.274;43.980;2023-01-15T13:32:02;100880.94;;;-6.92;72.99
69982;BME280;57319;56.274;43.980;2023-01-15T13:34:58;100870.34;;;-7.00;72.69
69982;BME280;57319;56.274;43.980;2023-01-15T13:37:26;100868.44;;;-6.92;72.58
69982;BME280;57319;56.274;43.980;2023-01-15T13:40:00;100863.53;;;-6.91;72.71
69982;BME280;57319;56.274;43.980;2023-01-15T13:42:29;100872.13;;;-6.87;72.58
69982;BME280;57319;56.274;43.980;2023-01-15T13:45:36;100870.63;;;-6.85;72.21
69982;BME280;57319;56.274;43.980;2023-01-15T13:48:06;100875.13;;;-6.81;72.24
69982;BME280;57319;56.274;43.980;2023-01-15T13:50:41;100878.38;;;-6.82;72.79
69982;BME280;57319;56.274;43.980;2023-01-15T13:55:42;100874.22;;;-6.82;72.29
69982;BME280;57319;56.274;43.980;2023-01-15T13:58:28;100862.75;;;-6.90;72.53
69982;BME280;57319;56.274;43.980;2023-01-15T14:01:02;100846.97;;;-6.89;72.62
69982;BME280;57319;56.274;43.980;2023-01-15T14:03:31;100854.69;;;-6.97;72.38
69982;BME280;57319;56.274;43.980;2023-01-15T14:06:08;100867.84;;;-7.00;72.27
69982;BME280;57319;56.274;43.980;2023-01-15T14:08:44;100875.13;;;-7.03;72.35
69982;BME280;57319;56.274;43.980;2023-01-15T14:21:50;100877.75;;;-7.02;72.31
69982;BME280;57319;56.274;43.980;2023-01-15T14:28:01;100860.34;;;-7.00;71.93
69982;BME280;57319;56.274;43.980;2023-01-15T14:35:35;100865.16;;;-6.91;71.70
69982;BME280;57319;56.274;43.980;2023-01-15T14:38:12;100862.31;;;-6.96;71.50
69982;BME280;57319;56.274;43.980;2023-01-15T14:40:58;100854.50;;;-7.11;71.62
69982;BME280;57319;56.274;43.980;2023-01-15T14:43:28;100852.31;;;-7.18;71.78
69982;BME280;57319;56.274;43.980;2023-01-15T14:45:55;100859.81;;;-7.18;71.79
69982;BME280;57319;56.274;43.980;2023-01-15T14:51:13;100845.22;;;-7.24;71.97
69982;BME280;57319;56.274;43.980;2023-01-15T14:53:58;100852.34;;;-7.28;72.01
69982;BME280;57319;56.274;43.980;2023-01-15T14:56:33;100860.91;;;-7.37;72.24
69982;BME280;57319;56.274;43.980;2023-01-15T15:09:35;100875.03;;;-7.59;72.79
69982;BME280;57319;56.274;43.980;2023-01-15T15:21:00;100874.50;;;-7.55;72.65
69982;BME280;57319;56.274;43.980;2023-01-15T15:23:37;100878.75;;;-7.54;72.83
69982;BME280;57319;56.274;43.980;2023-01-15T15:26:27;100865.44;;;-7.43;72.26
69982;BME280;57319;56.274;43.980;2023-01-15T15:29:02;100875.69;;;-7.40;72.38